Time;durP1;ratioP1;P1;durP2;ratioP2;P2;SDS_P1;SDS_P2;PMS_P1;PMS_P2;Temp;Humidity;BMP_temperature;BMP_pressure;BME280_temperature;BME280_humidity;BME280_pressure;Samples;Min_cycle;Max_cycle;Signal;HPM_P1;HPM_P2
2022/11/01 00:02:02;;;;;;;;;;;;;;;20.89;100.00;98480.69;5038807;28;19916;-42
2022/11/01 00:04:27;;;;;;;;;;;;;;;21.24;100.00;98485.59;5039496;28;19920;-42
2022/11/01 00:06:52;;;;;;;;;;;;;;;20.57;100.00;98493.78;5037860;28;20616;-42
2022/11/01 00:09:17;;;;;;;;;;;;;;;21.03;100.00;98492.66;5037294;28;20653;-42
2022/11/01 00:11:43;;;;;;;;;;;;;;;21.40;100.00;98485.16;5037810;28;19921;-42
2022/11/01 00:14:10;;;;;;;;;;;;;;;21.21;100.00;98491.09;5039577;28;19921;-43
2022/11/01 00:16:36;;;;;;;;;;;;;;;20.91;100.00;98493.66;5038258;28;19929;-43
2022/11/01 00:19:01;;;;;;;;;;;;;;;20.48;100.00;98493.56;5037550;28;19921;-42
2022/11/01 00:21:26;;;;;;;;;;;;;;;20.94;100.00;98491.63;5037515;28;19931;-42
2022/11/01 00:23:51;;;;;;;;;;;;;;;21.21;100.00;98471.91;5041997;28;19917;-42
2022/11/01 00:26:18;;;;;;;;;;;;;;;21.26;100.00;98478.44;5042661;28;20410;-46
2022/11/01 00:28:43;;;;;;;;;;;;;;;21.45;100.00;98482.16;5042047;28;19913;-46
2022/11/01 00:31:09;;;;;;;;;;;;;;;21.43;100.00;98473.59;5041152;28;20294;-43
2022/11/01 00:33:35;;;;;;;;;;;;;;;21.37;100.00;98458.34;5036046;28;20011;-42
2022/11/01 00:36:00;;;;;;;;;;;;;;;21.62;100.00;98463.22;5039091;28;19917;-43
2022/11/01 00:38:25;;;;;;;;;;;;;;;21.62;100.00;98451.88;5041692;28;20003;-42
2022/11/01 00:40:51;;;;;;;;;;;;;;;21.47;100.00;98459.28;5041266;28;20409;-42
2022/11/01 00:43:16;;;;;;;;;;;;;;;20.95;100.00;98458.41;5041850;28;19921;-42
2022/11/01 00:45:42;;;;;;;;;;;;;;;21.78;100.00;98456.63;5040531;28;20185;-42
2022/11/01 00:48:07;;;;;;;;;;;;;;;21.10;100.00;98457.97;5041150;28;19971;-42
2022/11/01 00:50:32;;;;;;;;;;;;;;;21.27;100.00;98461.75;5040552;28;19917;-42
2022/11/01 00:52:57;;;;;;;;;;;;;;;21.15;100.00;98449.72;5041770;28;20471;-42
2022/11/01 00:55:23;;;;;;;;;;;;;;;21.44;100.00;98454.28;5040646;28;19924;-42
2022/11/01 00:57:48;;;;;;;;;;;;;;;20.99;100.00;98465.06;5041229;28;19920;-42
2022/11/01 01:00:13;;;;;;;;;;;;;;;21.44;100.00;98454.28;5041423;28;19923;-43
2022/11/01 01:02:39;;;;;;;;;;;;;;;21.03;100.00;98461.22;5039160;28;20385;-42
2022/11/01 01:05:04;;;;;;;;;;;;;;;21.40;100.00;98451.13;5039678;28;19928;-42
2022/11/01 01:07:30;;;;;;;;;;;;;;;20.95;100.00;98458.41;5040692;28;20370;-42
2022/11/01 01:09:55;;;;;;;;;;;;;;;21.25;100.00;98463.69;5040623;28;19925;-42
2022/11/01 01:12:20;;;;;;;;;;;;;;;21.80;100.00;98452.06;5039746;28;19924;-42
2022/11/01 01:14:45;;;;;;;;;;;;;;;21.18;100.00;98459.91;5040575;28;19921;-42
2022/11/01 01:17:10;;;;;;;;;;;;;;;21.24;100.00;98456.78;5041533;28;19917;-42
2022/11/01 01:19:36;;;;;;;;;;;;;;;21.33;100.00;98456.97;5040560;28;20068;-42
2022/11/01 01:22:01;;;;;;;;;;;;;;;21.33;100.00;98447.31;5040337;28;19927;-42
2022/11/01 01:24:27;;;;;;;;;;;;;;;21.35;100.00;98449.78;5041258;28;19920;-43
2022/11/01 01:26:52;;;;;;;;;;;;;;;21.72;100.00;98447.50;5040835;28;19924;-42
2022/11/01 01:29:17;;;;;;;;;;;;;;;21.79;100.00;98453.88;5039162;28;19936;-42
2022/11/01 01:31:42;;;;;;;;;;;;;;;21.74;100.00;98447.38;5040113;28;19995;-42
2022/11/01 01:34:08;;;;;;;;;;;;;;;21.69;100.00;98445.13;5038208;28;19952;-42
2022/11/01 01:36:33;;;;;;;;;;;;;;;21.91;100.00;98441.47;5036211;28;19971;-42
2022/11/01 01:38:58;;;;;;;;;;;;;;;21.59;100.00;98433.81;5040971;28;19947;-42
2022/11/01 01:44:26;;;;;;;;;;;;;;;20.90;100.00;98443.09;5040998;28;20388;-42
2022/11/01 01:46:51;;;;;;;;;;;;;;;21.72;100.00;98426.53;5040580;28;19932;-43
2022/11/01 01:49:17;;;;;;;;;;;;;;;20.65;100.00;98431.22;5037757;28;19920;-42
2022/11/01 01:51:42;;;;;;;;;;;;;;;21.63;100.00;98422.09;5040059;28;19928;-42
2022/11/01 01:54:07;;;;;;;;;;;;;;;21.37;100.00;98426.94;5040457;28;19917;-42
2022/11/01 01:56:33;;;;;;;;;;;;;;;20.77;100.00;98419.72;5038789;28;19920;-42
2022/11/01 01:59:00;;;;;;;;;;;;;;;20.88;100.00;98432.75;5036574;28;19921;-43
2022/11/01 02:01:25;;;;;;;;;;;;;;;21.26;100.00;98423.44;5040517;28;19935;-42
2022/11/01 02:03:51;;;;;;;;;;;;;;;21.23;100.00;98431.56;5041213;28;19920;-43
2022/11/01 02:06:19;;;;;;;;;;;;;;;21.08;100.00;98432.88;5040126;28;19921;-43
2022/11/01 02:09:05;;;;;;;;;;;;;;;20.66;100.00;98432.84;5038438;28;19943;-42
2022/11/01 02:11:30;;;;;;;;;;;;;;;21.14;100.00;98434.94;5039843;28;19947;-42
2022/11/01 02:13:56;;;;;;;;;;;;;;;21.10;100.00;98441.44;5038942;28;19960;-42
2022/11/01 02:16:21;;;;;;;;;;;;;;;21.95;100.00;98437.63;5040127;28;19967;-43
2022/11/01 02:18:48;;;;;;;;;;;;;;;21.15;100.00;98435.81;5038957;28;19978;-43
2022/11/01 02:21:32;;;;;;;;;;;;;;;21.38;100.00;98439.06;5038056;28;19920;-42
2022/11/01 02:24:04;;;;;;;;;;;;;;;20.77;100.00;98443.28;5040576;28;19963;-43
2022/11/01 02:26:30;;;;;;;;;;;;;;;20.77;100.00;98445.06;5035655;28;19928;-42
2022/11/01 02:29:10;;;;;;;;;;;;;;;20.91;100.00;98433.44;5038740;28;20134;-42
2022/11/01 02:31:54;;;;;;;;;;;;;;;20.05;100.00;98429.03;5040853;28;19936;-42
2022/11/01 02:34:24;;;;;;;;;;;;;;;20.48;100.00;98425.56;5037598;28;20028;-42
2022/11/01 02:37:00;;;;;;;;;;;;;;;19.87;100.00;98432.31;5034268;28;20011;-42
2022/11/01 02:39:27;;;;;;;;;;;;;;;20.00;100.00;98425.97;5039142;28;19917;-43
2022/11/01 02:41:58;;;;;;;;;;;;;;;20.04;100.00;98437.81;5037956;28;19920;-43
2022/11/01 02:44:24;;;;;;;;;;;;;;;20.30;100.00;98426.22;5039809;28;19913;-43
2022/11/01 02:47:01;;;;;;;;;;;;;;;20.83;100.00;98403.50;5038479;28;19931;-43
2022/11/01 02:49:28;;;;;;;;;;;;;;;21.02;100.00;98408.03;5037213;28;19927;-43
2022/11/01 02:51:53;;;;;;;;;;;;;;;20.50;100.00;98421.97;5037132;28;20015;-43
2022/11/01 02:54:19;;;;;;;;;;;;;;;20.45;100.00;98423.19;5037304;28;20039;-43
2022/11/01 02:56:44;;;;;;;;;;;;;;;20.80;100.00;98423.88;5039029;28;19939;-43
2022/11/01 02:59:11;;;;;;;;;;;;;;;20.80;100.00;98414.25;5038475;28;20362;-42
2022/11/01 03:01:36;;;;;;;;;;;;;;;21.21;100.00;98406.44;5037388;28;20465;-42
2022/11/01 03:04:01;;;;;;;;;;;;;;;21.27;100.00;98411.19;5039693;28;19993;-42
2022/11/01 03:06:29;;;;;;;;;;;;;;;21.53;100.00;98406.34;5038466;28;21845;-43
2022/11/01 03:09:05;;;;;;;;;;;;;;;20.69;100.00;98427.41;5034933;28;19920;-42
2022/11/01 03:11:39;;;;;;;;;;;;;;;21.00;100.00;98422.19;5037008;28;19967;-42
2022/11/01 03:14:07;;;;;;;;;;;;;;;21.59;100.00;98418.09;5036932;28;20268;-43
2022/11/01 03:16:34;;;;;;;;;;;;;;;21.27;100.00;98422.47;5036904;28;20011;-42
2022/11/01 03:19:05;;;;;;;;;;;;;;;20.82;100.00;98427.19;5035928;28;19940;-42
2022/11/01 03:21:33;;;;;;;;;;;;;;;21.38;100.00;98415.50;5036214;28;20005;-42
2022/11/01 03:24:14;;;;;;;;;;;;;;;21.57;100.00;98412.97;5039136;28;19974;-42
2022/11/01 03:26:40;;;;;;;;;;;;;;;21.49;100.00;98420.69;5038449;28;19924;-42
2022/11/01 03:29:05;;;;;;;;;;;;;;;20.84;100.00;98436.56;5036444;28;19925;-42
2022/11/01 03:31:31;;;;;;;;;;;;;;;21.27;100.00;98435.56;5037478;28;19916;-42
2022/11/01 03:34:01;;;;;;;;;;;;;;;21.43;100.00;98434.28;5038872;28;19921;-42
2022/11/01 03:36:28;;;;;;;;;;;;;;;21.20;100.00;98441.47;5034847;28;19920;-42
2022/11/01 03:38:55;;;;;;;;;;;;;;;21.37;100.00;98437.41;5037168;28;19921;-42
2022/11/01 03:41:21;;;;;;;;;;;;;;;21.19;100.00;98445.03;5037724;28;19916;-42
2022/11/01 03:43:46;;;;;;;;;;;;;;;20.81;100.00;98452.53;5036099;28;20266;-42
2022/11/01 03:46:11;;;;;;;;;;;;;;;20.95;100.00;98448.75;5037784;28;20405;-42
2022/11/01 03:48:37;;;;;;;;;;;;;;;20.87;100.00;98462.50;5037332;28;19959;-42
2022/11/01 03:51:02;;;;;;;;;;;;;;;20.72;100.00;98469.00;5038678;28;20389;-42
2022/11/01 03:53:28;;;;;;;;;;;;;;;21.26;100.00;98456.66;5038249;28;20393;-42
2022/11/01 03:55:53;;;;;;;;;;;;;;;21.16;100.00;98469.69;5040147;28;19921;-42
2022/11/01 03:58:18;;;;;;;;;;;;;;;21.57;100.00;98460.13;5042122;28;19916;-42
2022/11/01 04:00:44;;;;;;;;;;;;;;;21.67;100.00;98450.53;5042366;28;19943;-42
2022/11/01 04:03:09;;;;;;;;;;;;;;;20.79;100.00;98464.91;5042443;28;19962;-42
2022/11/01 04:05:35;;;;;;;;;;;;;;;20.86;100.00;98470.47;5042689;28;19924;-42
2022/11/01 04:08:00;;;;;;;;;;;;;;;20.98;100.00;98479.09;5041971;28;19927;-42
2022/11/01 04:10:26;;;;;;;;;;;;;;;20.97;100.00;98466.97;5039573;28;19921;-42
2022/11/01 04:12:51;;;;;;;;;;;;;;;20.55;100.00;98487.81;5042135;28;19917;-42
2022/11/01 04:20:57;;;;;;;;;;;;;;;20.35;100.00;98477.19;5041882;28;19930;-42
2022/11/01 04:23:22;;;;;;;;;;;;;;;20.48;100.00;98477.88;5042509;28;19921;-42
2022/11/01 04:25:48;;;;;;;;;;;;;;;20.70;100.00;98491.84;5041109;28;19966;-42
2022/11/01 04:28:13;;;;;;;;;;;;;;;20.27;100.00;98505.75;5041078;28;20055;-42
2022/11/01 04:30:39;;;;;;;;;;;;;;;20.16;100.00;98492.69;5042421;28;20011;-42
2022/11/01 04:33:04;;;;;;;;;;;;;;;20.44;100.00;98497.38;5038738;28;19917;-42
2022/11/01 04:35:29;;;;;;;;;;;;;;;20.16;100.00;98509.22;5041422;28;19921;-42
2022/11/01 04:37:56;;;;;;;;;;;;;;;20.95;100.00;98495.06;5040260;28;19921;-42
2022/11/01 04:40:21;;;;;;;;;;;;;;;20.86;100.00;98505.31;5040576;28;19978;-42
2022/11/01 04:42:46;;;;;;;;;;;;;;;20.73;100.00;98509.06;5043127;28;20385;-42
2022/11/01 04:45:11;;;;;;;;;;;;;;;20.79;100.00;98511.19;5041628;28;19921;-42
2022/11/01 04:47:36;;;;;;;;;;;;;;;20.41;100.00;98515.09;5039124;28;19925;-42
2022/11/01 04:50:02;;;;;;;;;;;;;;;20.24;100.00;98514.66;5056511;28;19950;-43
2022/11/01 04:52:27;;;;;;;;;;;;;;;20.44;100.00;98502.63;5042224;28;19924;-42
2022/11/01 04:54:52;;;;;;;;;;;;;;;20.44;100.00;98517.47;5040978;28;19967;-43
2022/11/01 04:57:23;;;;;;;;;;;;;;;19.68;100.00;98508.63;5041421;28;20392;-42
2022/11/01 04:59:50;;;;;;;;;;;;;;;20.27;100.00;98522.28;5041770;28;19929;-43
2022/11/01 05:02:15;;;;;;;;;;;;;;;20.71;100.00;98513.59;5039996;28;19925;-42
2022/11/01 05:04:40;;;;;;;;;;;;;;;20.80;100.00;98518.94;5040836;28;19998;-42
2022/11/01 05:07:05;;;;;;;;;;;;;;;20.34;100.00;98532.22;5040790;28;20324;-43
2022/11/01 05:09:31;;;;;;;;;;;;;;;20.52;100.00;98536.00;5041306;28;20802;-42
2022/11/01 05:11:56;;;;;;;;;;;;;;;20.06;100.00;98540.47;5039999;28;20313;-42
2022/11/01 05:14:21;;;;;;;;;;;;;;;19.96;100.00;98533.50;5042112;28;20385;-42
2022/11/01 05:16:46;;;;;;;;;;;;;;;20.73;100.00;98528.22;5040571;28;19917;-42
2022/11/01 05:19:12;;;;;;;;;;;;;;;21.40;100.00;98516.59;5038775;28;20065;-42
2022/11/01 05:21:37;;;;;;;;;;;;;;;21.27;100.00;98511.53;5036774;28;19921;-42
2022/11/01 05:24:02;;;;;;;;;;;;;;;20.66;100.00;98532.28;5040479;28;20001;-42
2022/11/01 05:26:27;;;;;;;;;;;;;;;20.21;100.00;98540.25;5055410;28;20023;-42
2022/11/01 05:28:53;;;;;;;;;;;;;;;20.81;100.00;98530.22;5040236;28;19921;-42
2022/11/01 05:31:18;;;;;;;;;;;;;;;20.45;100.00;98546.09;5040239;28;19920;-42
2022/11/01 05:33:43;;;;;;;;;;;;;;;20.17;100.00;98542.25;5037946;28;19987;-42
2022/11/01 05:36:08;;;;;;;;;;;;;;;21.26;100.00;98530.81;5036635;28;20667;-42
2022/11/01 05:38:33;;;;;;;;;;;;;;;20.65;100.00;98535.88;5039132;28;19927;-42
2022/11/01 05:41:00;;;;;;;;;;;;;;;20.94;100.00;98535.25;5039852;28;19928;-42
2022/11/01 05:43:26;;;;;;;;;;;;;;;20.47;100.00;98535.53;5039948;28;19964;-43
2022/11/01 05:45:51;;;;;;;;;;;;;;;20.85;100.00;98542.94;5039721;28;20338;-42
2022/11/01 05:48:16;;;;;;;;;;;;;;;20.57;100.00;98551.34;5036729;28;20366;-42
2022/11/01 05:50:42;;;;;;;;;;;;;;;20.53;100.00;98558.59;5040123;28;20276;-42
2022/11/01 05:53:08;;;;;;;;;;;;;;;20.37;100.00;98553.75;5040722;28;19917;-42
2022/11/01 05:55:34;;;;;;;;;;;;;;;20.36;100.00;98561.72;5039856;28;19928;-42
2022/11/01 05:57:59;;;;;;;;;;;;;;;20.56;100.00;98557.50;5039898;28;19920;-42
2022/11/01 06:00:24;;;;;;;;;;;;;;;20.64;100.00;98555.13;5040001;28;20300;-42
2022/11/01 06:02:49;;;;;;;;;;;;;;;20.69;100.00;98563.47;5041071;28;19959;-42
2022/11/01 06:05:15;;;;;;;;;;;;;;;21.02;100.00;98559.03;5040292;28;19925;-42
2022/11/01 06:07:40;;;;;;;;;;;;;;;20.57;100.00;98569.66;5039009;28;19933;-42
2022/11/01 06:10:05;;;;;;;;;;;;;;;20.80;100.00;98560.81;5039777;28;20611;-42
2022/11/01 06:12:31;;;;;;;;;;;;;;;20.76;100.00;98564.63;5039323;28;20405;-42
2022/11/01 06:14:56;;;;;;;;;;;;;;;20.25;100.00;98568.63;5039648;28;19920;-42
2022/11/01 06:17:21;;;;;;;;;;;;;;;20.52;100.00;98572.63;5040607;28;19917;-42
2022/11/01 06:19:46;;;;;;;;;;;;;;;20.27;100.00;98563.25;5037510;28;19920;-42
2022/11/01 06:22:12;;;;;;;;;;;;;;;20.63;100.00;98569.19;5041009;28;19927;-42
2022/11/01 06:24:37;;;;;;;;;;;;;;;20.50;100.00;98565.84;5038866;28;19928;-42
2022/11/01 06:27:02;;;;;;;;;;;;;;;20.25;100.00;98565.16;5039059;28;20559;-42
2022/11/01 06:29:27;;;;;;;;;;;;;;;20.62;100.00;98575.38;5036052;28;19935;-42
2022/11/01 06:31:53;;;;;;;;;;;;;;;20.30;100.00;98578.72;5055131;28;19935;-42
2022/11/01 06:34:18;;;;;;;;;;;;;;;20.18;100.00;98593.56;5038238;28;19917;-42
2022/11/01 06:36:43;;;;;;;;;;;;;;;20.45;100.00;98587.97;5039802;28;19919;-41
2022/11/01 06:39:10;;;;;;;;;;;;;;;20.38;100.00;98599.03;5038469;28;19921;-42
2022/11/01 06:41:35;;;;;;;;;;;;;;;20.25;100.00;98609.63;5038787;28;19925;-42
2022/11/01 06:44:00;;;;;;;;;;;;;;;20.53;100.00;98599.63;5039911;28;19988;-42
2022/11/01 06:46:26;;;;;;;;;;;;;;;20.25;100.00;98610.47;5038960;28;19920;-42
2022/11/01 06:48:51;;;;;;;;;;;;;;;20.62;100.00;98604.16;5038060;28;20335;-42
2022/11/01 06:51:16;;;;;;;;;;;;;;;20.40;100.00;98626.72;5038700;28;19920;-42
2022/11/01 06:53:41;;;;;;;;;;;;;;;20.57;100.00;98621.97;5038529;28;19928;-42
2022/11/01 06:56:06;;;;;;;;;;;;;;;20.14;100.00;98633.16;5036850;28;19921;-42
2022/11/01 06:58:32;;;;;;;;;;;;;;;20.57;100.00;98632.44;5037687;28;20032;-42
2022/11/01 07:00:59;;;;;;;;;;;;;;;20.59;100.00;98641.00;5038728;28;20040;-42
2022/11/01 07:03:24;;;;;;;;;;;;;;;21.14;100.00;98639.19;5038364;28;19916;-42
2022/11/01 07:05:49;;;;;;;;;;;;;;;20.98;100.00;98651.88;5036071;28;19927;-42
2022/11/01 07:08:15;;;;;;;;;;;;;;;20.74;100.00;98654.69;5032451;28;19929;-42
2022/11/01 07:10:41;;;;;;;;;;;;;;;20.98;100.00;98657.09;5037553;28;19921;-42
2022/11/01 07:13:08;;;;;;;;;;;;;;;21.39;100.00;98658.13;5037747;28;19921;-42
2022/11/01 07:15:33;;;;;;;;;;;;;;;20.71;100.00;98676.69;5039307;28;19931;-42
2022/11/01 07:17:59;;;;;;;;;;;;;;;20.98;100.00;98680.66;5038113;28;19924;-42
2022/11/01 07:20:25;;;;;;;;;;;;;;;20.73;100.00;98690.47;5037025;28;19920;-42
2022/11/01 07:22:57;;;;;;;;;;;;;;;20.73;100.00;98685.22;5039262;28;20016;-42
2022/11/01 07:25:22;;;;;;;;;;;;;;;20.64;100.00;98692.03;5039708;28;19921;-42
2022/11/01 07:27:47;;;;;;;;;;;;;;;21.01;100.00;98688.28;5038166;28;19928;-42
2022/11/01 07:30:13;;;;;;;;;;;;;;;20.91;100.00;98697.81;5040931;28;19917;-42
2022/11/01 07:32:38;;;;;;;;;;;;;;;20.94;100.00;98697.56;5041938;28;19921;-42
2022/11/01 07:35:03;;;;;;;;;;;;;;;19.85;100.00;98702.41;5045139;28;19917;-42
2022/11/01 07:37:29;;;;;;;;;;;;;;;19.71;100.00;98709.63;5043238;28;19921;-42
2022/11/01 07:39:54;;;;;;;;;;;;;;;19.34;100.00;98712.25;5044102;28;20191;-42
2022/11/01 07:42:19;;;;;;;;;;;;;;;20.29;100.00;98713.03;5043559;28;19932;-42
2022/11/01 07:44:45;;;;;;;;;;;;;;;20.22;100.00;98710.06;5045392;28;19999;-42
2022/11/01 07:47:10;;;;;;;;;;;;;;;19.90;100.00;98715.13;5041484;28;19929;-42
2022/11/01 07:49:35;;;;;;;;;;;;;;;20.31;100.00;98726.84;5044087;28;19975;-42
2022/11/01 07:52:03;;;;;;;;;;;;;;;19.86;100.00;98721.50;5042947;28;19920;-42
2022/11/01 07:54:28;;;;;;;;;;;;;;;20.03;100.00;98725.50;5045691;28;19930;-42
2022/11/01 07:56:53;;;;;;;;;;;;;;;20.35;100.00;98728.28;5046017;28;20464;-42
2022/11/01 07:59:18;;;;;;;;;;;;;;;19.96;100.00;98727.72;5043543;28;20482;-42
2022/11/01 08:01:43;;;;;;;;;;;;;;;19.88;100.00;98737.91;5044991;28;19924;-42
2022/11/01 08:04:09;;;;;;;;;;;;;;;20.19;100.00;98746.09;5045793;28;19916;-42
2022/11/01 08:06:34;;;;;;;;;;;;;;;20.31;100.00;98739.91;5043035;28;19917;-42
2022/11/01 08:08:59;;;;;;;;;;;;;;;20.31;100.00;98750.38;5041954;28;19925;-42
2022/11/01 08:11:24;;;;;;;;;;;;;;;20.47;100.00;98748.25;5044408;28;19987;-42
2022/11/01 08:13:49;;;;;;;;;;;;;;;20.49;100.00;98755.97;5045597;28;20122;-42
2022/11/01 08:16:16;;;;;;;;;;;;;;;19.29;100.00;98770.03;5044928;28;19935;-42
2022/11/01 08:18:42;;;;;;;;;;;;;;;19.08;100.00;98788.06;5039923;28;19956;-41
2022/11/01 08:21:07;;;;;;;;;;;;;;;20.21;100.00;98778.19;5045317;28;19971;-41
2022/11/01 08:23:33;;;;;;;;;;;;;;;19.50;100.00;98778.13;5060363;28;19925;-42
2022/11/01 08:25:58;;;;;;;;;;;;;;;19.10;100.00;98786.19;5044432;28;19966;-41
2022/11/01 08:28:23;;;;;;;;;;;;;;;18.74;100.00;98813.03;5043161;28;19925;-41
2022/11/01 08:30:48;;;;;;;;;;;;;;;18.51;100.00;98807.59;5059737;28;19927;-42
2022/11/01 08:33:14;;;;;;;;;;;;;;;18.78;100.00;98807.53;5052589;28;19924;-41
2022/11/01 08:35:39;;;;;;;;;;;;;;;18.49;100.00;98824.28;5046195;28;20014;-41
2022/11/01 08:38:04;;;;;;;;;;;;;;;17.62;100.00;98841.25;5043484;28;19927;-41
2022/11/01 08:40:30;;;;;;;;;;;;;;;17.81;100.00;98852.19;5045002;28;19924;-41
2022/11/01 08:42:55;;;;;;;;;;;;;;;17.10;100.00;98859.16;5038378;28;19931;-41
2022/11/01 08:45:20;;;;;;;;;;;;;;;17.66;100.00;98866.16;5040279;28;19952;-43
2022/11/01 08:47:46;;;;;;;;;;;;;;;18.07;100.00;98860.94;5038264;28;20288;-41
2022/11/01 08:50:13;;;;;;;;;;;;;;;18.35;100.00;98865.16;5040767;28;19924;-41
2022/11/01 08:52:38;;;;;;;;;;;;;;;18.34;100.00;98863.50;5039085;28;20010;-41
2022/11/01 08:55:03;;;;;;;;;;;;;;;18.27;100.00;98875.28;5030953;28;20019;-41
2022/11/01 08:57:29;;;;;;;;;;;;;;;18.40;100.00;98870.06;5034941;28;19952;-41
2022/11/01 08:59:54;;;;;;;;;;;;;;;18.00;100.00;98880.50;5039014;28;19924;-41
2022/11/01 09:02:19;;;;;;;;;;;;;;;18.32;100.00;98867.97;5038643;28;20483;-41
2022/11/01 09:04:44;;;;;;;;;;;;;;;18.52;100.00;98858.84;5041015;28;19923;-41
2022/11/01 09:07:10;;;;;;;;;;;;;;;17.66;100.00;98874.81;5054671;28;19929;-41
2022/11/01 09:09:35;;;;;;;;;;;;;;;17.94;100.00;98871.31;5039280;28;19920;-44
2022/11/01 09:12:02;;;;;;;;;;;;;;;18.10;100.00;98858.13;5039487;28;20080;-41
2022/11/01 09:14:27;;;;;;;;;;;;;;;17.78;100.00;98862.78;5040212;28;19921;-41
2022/11/01 09:16:53;;;;;;;;;;;;;;;18.21;100.00;98860.03;5041209;28;19970;-44
2022/11/01 09:19:18;;;;;;;;;;;;;;;18.53;100.00;98849.22;5038353;28;19917;-41
2022/11/01 09:21:43;;;;;;;;;;;;;;;18.65;100.00;98858.81;5040149;28;19966;-41
2022/11/01 09:24:12;;;;;;;;;;;;;;;18.93;100.00;98846.53;5038609;28;20019;-41
2022/11/01 09:26:37;;;;;;;;;;;;;;;18.65;100.00;98851.00;5038025;28;20042;-41
2022/11/01 09:29:03;;;;;;;;;;;;;;;19.14;100.00;98854.69;5035921;28;20015;-41
2022/11/01 09:31:28;;;;;;;;;;;;;;;19.21;100.00;98848.09;5040538;28;19921;-42
2022/11/01 09:33:54;;;;;;;;;;;;;;;19.35;100.00;98852.34;5037214;28;20901;-42
2022/11/01 09:36:20;;;;;;;;;;;;;;;19.04;100.00;98854.47;5038974;28;20112;-42
2022/11/01 09:38:45;;;;;;;;;;;;;;;18.85;100.00;98856.69;5037147;28;19929;-41
2022/11/01 09:41:15;;;;;;;;;;;;;;;20.60;100.00;98844.16;5040689;28;20353;-42
2022/11/01 09:43:41;;;;;;;;;;;;;;;19.95;100.00;98825.38;5039938;28;19917;-42
2022/11/01 09:46:06;;;;;;;;;;;;;;;19.76;100.00;98827.69;5040579;28;19928;-42
2022/11/01 09:48:32;;;;;;;;;;;;;;;19.51;98.58;98841.63;5038566;28;19948;-42
2022/11/01 09:50:58;;;;;;;;;;;;;;;20.13;94.80;98832.81;5041049;28;19940;-42
2022/11/01 09:53:24;;;;;;;;;;;;;;;20.12;92.79;98833.78;5038666;28;19921;-41
2022/11/01 09:55:55;;;;;;;;;;;;;;;20.12;90.61;98841.63;5038291;28;20818;-42
2022/11/01 09:58:24;;;;;;;;;;;;;;;19.90;87.19;98843.19;5039033;28;19960;-41
2022/11/01 10:00:55;;;;;;;;;;;;;;;20.66;89.29;98854.13;5036734;28;19921;-42
2022/11/01 10:03:20;;;;;;;;;;;;;;;20.74;90.43;98864.03;5039739;28;20003;-42
2022/11/01 10:05:53;;;;;;;;;;;;;;;20.90;87.08;98861.91;5036105;28;19924;-42
2022/11/01 10:08:18;;;;;;;;;;;;;;;20.02;89.35;98878.03;5033181;28;19994;-42
2022/11/01 10:11:02;;;;;;;;;;;;;;;19.56;89.55;98876.91;5036028;28;19956;-42
2022/11/01 10:13:40;;;;;;;;;;;;;;;20.17;89.99;98876.91;5039369;28;19969;-42
2022/11/01 10:16:20;;;;;;;;;;;;;;;21.16;88.84;98880.81;5037127;28;19928;-42
2022/11/01 10:18:48;;;;;;;;;;;;;;;19.61;87.14;98887.03;5038919;28;19924;-42
2022/11/01 10:21:16;;;;;;;;;;;;;;;19.97;87.44;98890.63;5035380;28;20428;-42
2022/11/01 10:23:43;;;;;;;;;;;;;;;20.39;86.15;98881.41;5039150;28;20007;-42
2022/11/01 10:26:11;;;;;;;;;;;;;;;20.59;86.29;98897.41;5038498;28;20411;-42
2022/11/01 10:28:48;;;;;;;;;;;;;;;20.82;81.09;98878.22;5030927;28;20452;-42
2022/11/01 10:31:14;;;;;;;;;;;;;;;20.15;84.18;98893.66;5035764;28;19920;-42
2022/11/01 10:33:42;;;;;;;;;;;;;;;21.23;85.09;98891.66;5033686;28;20322;-42
2022/11/01 10:36:15;;;;;;;;;;;;;;;20.34;82.61;98893.97;5032801;28;19921;-42
2022/11/01 10:38:41;;;;;;;;;;;;;;;20.38;85.83;98899.81;5035517;28;19920;-42
2022/11/01 10:41:24;;;;;;;;;;;;;;;21.61;81.66;98888.69;5036915;28;19931;-42
2022/11/01 10:43:51;;;;;;;;;;;;;;;22.06;81.75;98893.81;5039055;28;19916;-42
2022/11/01 10:46:17;;;;;;;;;;;;;;;21.61;79.98;98896.53;5037942;28;19921;-42
2022/11/01 10:49:15;;;;;;;;;;;;;;;22.43;78.75;98893.44;5050320;28;20019;-42
2022/11/01 10:51:40;;;;;;;;;;;;;;;21.64;78.98;98895.47;5024571;28;19925;-42
2022/11/01 10:54:06;;;;;;;;;;;;;;;20.78;80.69;98902.13;5037629;28;19970;-42
2022/11/01 10:56:32;;;;;;;;;;;;;;;20.65;78.90;98892.56;5035740;28;19920;-42
2022/11/01 10:58:58;;;;;;;;;;;;;;;19.93;81.88;98904.84;5036094;28;19921;-42
2022/11/01 11:01:24;;;;;;;;;;;;;;;20.63;81.65;98897.06;5038165;28;19948;-42
2022/11/01 11:03:50;;;;;;;;;;;;;;;20.74;79.20;98896.25;5036590;28;19917;-42
2022/11/01 11:06:15;;;;;;;;;;;;;;;21.10;78.87;98890.00;5036211;28;19986;-42
2022/11/01 11:08:41;;;;;;;;;;;;;;;20.78;83.11;98895.09;5034597;28;20821;-42
2022/11/01 11:11:08;;;;;;;;;;;;;;;21.34;80.41;98885.59;5037586;28;19994;-42
2022/11/01 11:13:33;;;;;;;;;;;;;;;21.82;80.77;98882.69;5034639;28;19956;-42
2022/11/01 11:16:00;;;;;;;;;;;;;;;21.77;79.47;98885.66;5034553;28;20008;-42
2022/11/01 11:18:37;;;;;;;;;;;;;;;20.95;77.40;98883.31;5033892;28;20000;-42
2022/11/01 11:21:07;;;;;;;;;;;;;;;20.83;80.92;98892.94;5034946;28;19913;-42
2022/11/01 11:23:33;;;;;;;;;;;;;;;20.64;79.21;98884.81;5036405;28;19917;-42
2022/11/01 11:26:01;;;;;;;;;;;;;;;21.52;79.01;98892.03;5040494;28;19919;-42
2022/11/01 11:28:29;;;;;;;;;;;;;;;21.51;77.93;98887.75;5034658;28;20289;-42
2022/11/01 11:30:54;;;;;;;;;;;;;;;21.15;80.15;98889.66;5037254;28;19916;-42
2022/11/01 11:33:19;;;;;;;;;;;;;;;21.41;81.36;98894.66;5031721;28;19982;-42
2022/11/01 11:35:55;;;;;;;;;;;;;;;22.01;80.61;98888.13;5035116;28;19927;-42
2022/11/01 11:38:37;;;;;;;;;;;;;;;21.96;79.72;98881.56;5036037;28;19921;-42
2022/11/01 11:41:03;;;;;;;;;;;;;;;22.66;82.32;98895.94;5035046;28;20011;-42
2022/11/01 11:43:30;;;;;;;;;;;;;;;23.00;80.32;98891.34;5033227;28;20259;-42
2022/11/01 11:46:25;;;;;;;;;;;;;;;22.84;77.97;98888.31;5031797;28;19948;-43
2022/11/01 11:48:59;;;;;;;;;;;;;;;22.94;81.54;98900.56;5026170;28;19924;-42
2022/11/01 11:51:25;;;;;;;;;;;;;;;23.48;78.30;98890.69;5016987;28;19975;-42
2022/11/01 11:54:06;;;;;;;;;;;;;;;22.89;78.71;98899.25;5033136;28;19928;-42
2022/11/01 11:56:31;;;;;;;;;;;;;;;22.53;74.92;98878.63;5035157;28;19931;-42
2022/11/01 11:58:56;;;;;;;;;;;;;;;22.48;79.34;98895.69;5032523;28;19921;-42
2022/11/01 12:01:22;;;;;;;;;;;;;;;22.54;81.31;98903.06;5034451;28;19917;-42
2022/11/01 12:03:48;;;;;;;;;;;;;;;22.85;80.39;98903.94;5033818;28;20608;-42
2022/11/01 12:06:18;;;;;;;;;;;;;;;23.65;81.77;98907.63;5036206;28;19920;-42
2022/11/01 12:08:44;;;;;;;;;;;;;;;23.76;76.95;98897.00;5031529;28;19925;-43
2022/11/01 12:11:09;;;;;;;;;;;;;;;23.26;75.81;98896.97;5035857;28;19975;-42
2022/11/01 12:13:40;;;;;;;;;;;;;;;23.34;77.23;98899.78;5036491;28;20007;-43
2022/11/01 12:16:08;;;;;;;;;;;;;;;21.99;78.27;98911.00;5037407;28;19920;-43
2022/11/01 12:18:33;;;;;;;;;;;;;;;21.38;72.24;98902.75;5037540;28;20008;-42
2022/11/01 12:20:58;;;;;;;;;;;;;;;22.63;76.92;98909.34;5040709;28;19979;-43
2022/11/01 12:23:24;;;;;;;;;;;;;;;22.82;74.67;98914.69;5038622;28;19963;-42
2022/11/01 12:25:49;;;;;;;;;;;;;;;23.22;76.09;98910.50;5041929;28;19956;-43
2022/11/01 12:28:14;;;;;;;;;;;;;;;22.90;77.18;98907.03;5038373;28;19924;-42
2022/11/01 12:30:39;;;;;;;;;;;;;;;23.87;78.71;98916.28;5039838;28;19920;-43
2022/11/01 12:33:08;;;;;;;;;;;;;;;23.75;76.52;98905.88;5040323;28;19921;-42
2022/11/01 12:35:34;;;;;;;;;;;;;;;22.76;70.10;98904.69;5039782;28;20035;-42
2022/11/01 12:38:17;;;;;;;;;;;;;;;23.19;75.89;98914.22;5039367;28;19971;-42
2022/11/01 12:40:42;;;;;;;;;;;;;;;23.30;73.19;98910.69;5039194;28;19932;-42
2022/11/01 12:43:14;;;;;;;;;;;;;;;23.16;68.63;98896.09;5039929;28;19920;-42
2022/11/01 12:45:39;;;;;;;;;;;;;;;22.69;72.79;98909.66;5039726;28;19920;-42